Pagrindinis puslapis
METAR-TAF:

METAR-TAF

Oro uostai :

Haidarabadas, Indija

platuma: 17-14-00N, ilguma: 078-26-00E, Aukštis: 617 m

Dabartinis oras

Ataskaita buvo paskelbta 20 minutes, ne 15:00 UTC
Vėjas 5 kt iš Rytų/Pietryčių
Temperatūra 24°C
Drėgmė 89%
Slėgis 1017 hPa
Matomumas: 5000 m
Mažai debesys ne aukštis 1500 ft
rūkana

METAR: VOHS 191500Z 11005KT 5000 BR FEW015 24/22 Q1017 NOSIG

Laikas: 20:50 (15:20 UTC)

Prognozė

Ataskaita buvo paskelbta 1 valandą ir 20 minutes, ne 14:00 UTC
Prognozė galioja nuo 19 metu 15 UTC su 19 metu 24 UTC
Vėjas 7 kt iš Rytų/Šiaurės Rytų
Matomumas: 4000 m
Išsisklaidę debesys ne aukštis 1500 ft
Išsisklaidę debesys ne aukštis 10000 ft
migla
Tapsmas
nuo 19 metu 16 UTC su 19 metu 18 UTC
Vėjas 4 kt nuo kintamojo kryptimis
Matomumas: 3000 m
Išsisklaidę debesys ne aukštis 1500 ft
Išsisklaidę debesys ne aukštis 10000 ft
rūkana

TAF: VOHS 191400Z 1915/1924 07007KT 4000 HZ SCT015 SCT100 BECMG 1916/1918 VRB04KT 3000 BR SCT015 SCT100

Orai ataskaitas ir orų prognozės (METAR, TAF).

turimą stotys yra geltonos ir raudonos taškus žemėlapyje.

Perkelti pele per norėdami pamatyti stoties vardą.

Tada spustelėkite, norėdami matyti oro stebėjimo ir prognozės.

Norėdami pakeisti žemėlapį: spustelėkite ant žalios mygtukų su juodo kryžiaus žemyn,; žalią mygtuką su brūkšneliu, jei norite nutolinti; arba žalių rodyklių gretimoms žemėlapius.


METAR-TAF: